Terminal Aerodrome Forecast
Issued by NWS Upton, NY

Home | Current Version | Previous Version | Text Only | Print | Product List | Glossary On
Versions: 1 2 3 4 5 6 7 8 9 10 11 12 13 14 15 16 17 18 19 20 21 22 23 24 25
000
FTUS41 KOKX 160200 AAA
TAFLGA
TAF AMD
KLGA 160232Z 1603/1624 20008KT P6SM SCT150 BKN250
     FM160600 22005KT P6SM SCT050 OVC150
     FM161000 VRB04KT P6SM VCSH BKN050 OVC150
     FM161500 32009KT P6SM BKN070 BKN150
     FM162000 26008KT P6SM SCT070 SCT150=

USA.gov is the U.S. government's official web portal to all federal, state and local government web resources and services.